Chateaugay, New York
Current Conditions -  °F | °C
As of 10:03 PM on Wednesday 26 Nov 2014 (Local Time) from KPBG Reporting Station
Light Snow Light Snow  
Wind Chill: 20°   Ceiling: 2100
Heat Index: 29°   Visibility: 1.7mi
Dew Point: 27°   Wind: 10mph
Humidity: 92%   Direction: 340°NNW
Pressure: 30.02"   Gusts: NA
Location:  44.93°N, 74.08°W
Report Text: KPBG 270303Z AUTO 34009KT 1 3/4SM -SN BR FEW008 BKN021 OVC028 M02/M03 A3002 RMK AO2 P0000 T10171028
Loading
Personal Weather Stations






























Interactive Weather Map New forecast layout! Learn more

10-Day Weather Forecast

Advertisements
Track Severe Weather on mobile